Main page
METAR-TAF:

METAR-TAF

Airports :

Brunei International Airport

Brunei, Brunei

latitude: 04-56N, longitude: 114-56E, elevation: 22 m

Current weather observation

The report was made 19 minutes ago, at 09:30 UTC
Wind 12 kt from the North
Temperature 28°C
Humidity 79%
Pressure 1009 hPa
Visibility 10 km or more
Few clouds at a height of 1600 ft
Few clouds at a height of 1700 ft, Cumulonimbus.
Broken clouds at a height of 30000 ft

METAR: WBSB 240930Z 35012KT 9999 FEW016 FEW017CB BKN300 28/24 Q1009 NOSIG

Time: 17:49 (09:49 UTC)

Forecast

The report was made 4 hours and 49 minutes ago, at 05:00 UTC
Forecast valid from 24 at 06 UTC to 25 at 12 UTC
Wind 11 kt from the North
Visibility 10 km or more
Few clouds at a height of 1600 ft
Becoming
from 24 at 11 UTC to 24 at 13 UTC
Wind 8 kt from the Northeast
Few clouds at a height of 1400 ft

TAF: WBSB 240500Z 2406/2512 35011KT 9999 FEW016 BECMG 2411/2413 04008KT FEW014

Weather observations and forecasts of more than 4000 airports (METAR and TAF reports).

The available stations are represented by yellow and red dots on the map.

Hover mouse over dot to see the name of the station.

Then click to see weather observations and forecasts.

To change the map : click on the green buttons with a black cross to zoom in, on the green button with a dash to zoom out, or on the green arrows for adjacent maps.


METAR-TAF: